SBIH

Details ICAO SBIH
Name ITAITUBA
Region Brazil
Timezone America/Santarem (UTC-3.0)
Plans Departing 7
Arriving 10
Stats Elevation 110 ft / 34 m (AMSL)
Location -4.242343° -56.000671°
Runways 1
Magnetic Variation 17.891° W
Sunrise 2017-12-11 09:27:55 UTC / 2017-12-11 06:27:55 Local
Sunset 2017-12-11 21:49:38 UTC / 2017-12-11 18:49:38 Local
Advertisement - Login to hide

Runways

ID Width Length Bearing (true) Bearing (mag) Surface Threshold Offset Overrun Length
05 98 ft / 30 m 5,316 ft / 1,620 m 37.39° 55.28° Asphalt 0 ft / 0 m 0 ft / 0 m
23 98 ft / 30 m 5,316 ft / 1,620 m 217.39° 235.28° Asphalt 0 ft / 0 m 0 ft / 0 m

Map

Weather


0- 5 10 15 20 25 30 35+ Temperature / ° C

Clouds and Precipitation
Forecast for 2017-12-11 06:00 UTC. Updated 24 minutes ago

Ground ~20,000 ft ~40,000 ft Winds

METAR

Not found

TAF

TAF SBIH 102200Z 1100/1112 00000KT 9999 SCT005 TN22/1106Z TX26/1112Z BECMG 1105/1107 2000 BR BKN005 BECMG 1109/1111 5000 BR FEW015 RMK PDY

Frequencies

Tower 118.40 MHz TWR
Warning: Do not use this data for real-world aviation or navigation. No guarantee of current accuracy is given.